createdAt,value
2023-03-04T00:00:29.810Z,5.69
2023-03-04T00:01:29.774Z,5.69
2023-03-04T00:02:29.798Z,5.69
2023-03-04T00:03:29.803Z,5.69
2023-03-04T00:04:29.766Z,5.71
2023-03-04T00:05:29.756Z,5.69
2023-03-04T00:06:29.719Z,5.68
2023-03-04T00:07:29.742Z,5.69
2023-03-04T00:08:29.704Z,5.68
2023-03-04T00:09:29.698Z,5.69
2023-03-04T00:10:29.665Z,5.68
2023-03-04T00:11:29.673Z,5.69
2023-03-04T00:12:29.649Z,5.69
2023-03-04T00:13:29.682Z,5.69
2023-03-04T00:14:30.576Z,5.71
2023-03-04T00:15:29.642Z,5.71
2023-03-04T00:16:29.646Z,5.71
2023-03-04T00:17:29.618Z,5.71
2023-03-04T00:18:29.593Z,5.71
2023-03-04T00:19:29.613Z,5.72
2023-03-04T00:20:29.685Z,5.73
2023-03-04T00:21:29.555Z,5.75
2023-03-04T00:22:29.548Z,5.75
2023-03-04T00:23:29.529Z,5.75
2023-03-04T00:24:29.524Z,5.75
2023-03-04T00:25:29.564Z,5.75
2023-03-04T00:26:29.504Z,5.73
2023-03-04T00:27:29.502Z,5.73
2023-03-04T00:28:29.512Z,5.73
2023-03-04T00:29:29.496Z,5.72
2023-03-04T00:30:29.457Z,5.73
2023-03-04T00:31:29.480Z,5.73
2023-03-04T00:32:29.583Z,5.73
2023-03-04T00:33:29.429Z,5.72
2023-03-04T00:34:31.752Z,5.72
2023-03-04T00:35:29.502Z,5.72
2023-03-04T00:36:29.386Z,5.71
2023-03-04T00:37:29.397Z,5.69
2023-03-04T00:38:29.367Z,5.68
2023-03-04T00:39:29.371Z,5.68
2023-03-04T00:40:29.382Z,5.69
2023-03-04T00:41:29.329Z,5.69
2023-03-04T00:42:29.363Z,5.68
2023-03-04T00:43:30.785Z,5.65
2023-03-04T00:44:29.291Z,5.65
2023-03-04T00:45:29.284Z,5.62
2023-03-04T00:46:29.276Z,5.61
2023-03-04T00:47:29.268Z,5.59
2023-03-04T00:48:30.341Z,5.61
2023-03-04T00:49:29.254Z,5.61
2023-03-04T00:50:29.258Z,5.61
2023-03-04T00:51:29.267Z,5.62
2023-03-04T00:52:29.205Z,5.62
2023-03-04T00:53:29.210Z,5.62
2023-03-04T00:54:29.181Z,5.62
2023-03-04T00:55:29.192Z,5.59
2023-03-04T00:56:29.176Z,5.61
2023-03-04T00:57:29.177Z,5.57
2023-03-04T00:58:29.145Z,5.54
2023-03-04T00:59:29.143Z,5.54
2023-03-04T01:00:29.123Z,5.54
2023-03-04T01:01:29.170Z,5.53
2023-03-04T01:02:29.119Z,5.51
2023-03-04T01:03:29.109Z,5.53
2023-03-04T01:04:29.098Z,5.53
2023-03-04T01:05:29.083Z,5.54
2023-03-04T01:06:29.052Z,5.53
2023-03-04T01:07:29.061Z,5.51
2023-03-04T01:08:29.073Z,5.51
2023-03-04T01:09:29.024Z,5.53
2023-03-04T01:10:29.004Z,5.53
2023-03-04T01:11:29.020Z,5.53
2023-03-04T01:12:29.010Z,5.53
2023-03-04T01:13:28.987Z,5.53
2023-03-04T01:14:28.975Z,5.54
2023-03-04T01:15:28.982Z,5.56
2023-03-04T01:16:28.987Z,5.54
2023-03-04T01:17:28.931Z,5.56
2023-03-04T01:18:28.918Z,5.56
2023-03-04T01:19:28.924Z,5.56
2023-03-04T01:20:28.923Z,5.54
2023-03-04T01:21:28.896Z,5.57
2023-03-04T01:22:28.896Z,5.56
2023-03-04T01:23:28.867Z,5.56
2023-03-04T01:24:28.860Z,5.54
2023-03-04T01:25:28.876Z,5.54
2023-03-04T01:26:28.816Z,5.53
2023-03-04T01:27:28.841Z,5.56
2023-03-04T01:28:28.797Z,5.53
2023-03-04T01:29:30.291Z,5.53
2023-03-04T01:30:28.790Z,5.54
2023-03-04T01:31:28.782Z,5.54
2023-03-04T01:32:28.785Z,5.54
2023-03-04T01:33:28.773Z,5.54
2023-03-04T01:34:28.741Z,5.54
2023-03-04T01:35:28.765Z,5.56
2023-03-04T01:36:28.735Z,5.54
2023-03-04T01:37:28.742Z,5.54
2023-03-04T01:38:28.709Z,5.56
2023-03-04T01:39:30.244Z,5.57
2023-03-04T01:40:28.722Z,5.57
2023-03-04T01:41:28.674Z,5.57
2023-03-04T01:42:28.660Z,5.57
2023-03-04T01:43:28.650Z,5.57
2023-03-04T01:44:30.188Z,5.56
2023-03-04T01:45:28.657Z,5.57
2023-03-04T01:46:28.679Z,5.57
2023-03-04T01:47:28.612Z,5.57
2023-03-04T01:48:28.597Z,5.56
2023-03-04T01:49:28.573Z,5.57
2023-03-04T01:50:28.564Z,5.56
2023-03-04T01:51:28.571Z,5.57
2023-03-04T01:52:28.566Z,5.57
2023-03-04T01:53:28.536Z,5.59
2023-03-04T01:54:28.523Z,5.59
2023-03-04T01:55:28.514Z,5.59
2023-03-04T01:56:28.507Z,5.61
2023-03-04T01:57:28.496Z,5.59
2023-03-04T01:58:28.505Z,5.59
2023-03-04T01:59:28.478Z,5.59
2023-03-04T02:00:28.462Z,5.61
2023-03-04T02:01:28.488Z,5.61
2023-03-04T02:02:28.429Z,5.61
2023-03-04T02:03:28.459Z,5.61
2023-03-04T02:04:28.431Z,5.62
2023-03-04T02:05:28.419Z,5.61
2023-03-04T02:06:28.418Z,5.61
2023-03-04T02:07:28.380Z,5.59
2023-03-04T02:08:28.359Z,5.61
2023-03-04T02:09:28.368Z,5.62
2023-03-04T02:10:28.382Z,5.61
2023-03-04T02:11:28.351Z,5.62
2023-03-04T02:12:28.342Z,5.61
2023-03-04T02:13:29.278Z,5.61
2023-03-04T02:14:28.331Z,5.62
2023-03-04T02:15:28.295Z,5.61
2023-03-04T02:16:28.273Z,5.59
2023-03-04T02:17:28.274Z,5.59
2023-03-04T02:18:28.255Z,5.59
2023-03-04T02:19:28.280Z,5.59
2023-03-04T02:20:28.260Z,5.59
2023-03-04T02:21:28.236Z,5.57
2023-03-04T02:22:28.212Z,5.57
2023-03-04T02:23:28.233Z,5.57
2023-03-04T02:24:28.196Z,5.57
2023-03-04T02:25:28.193Z,5.57
2023-03-04T02:26:28.204Z,5.57
2023-03-04T02:27:28.167Z,5.56
2023-03-04T02:28:28.141Z,5.57
2023-03-04T02:29:28.142Z,5.59
2023-03-04T02:30:29.613Z,5.59
2023-03-04T02:31:28.212Z,5.61
2023-03-04T02:32:28.181Z,5.59
2023-03-04T02:33:28.099Z,5.59
2023-03-04T02:34:28.077Z,5.59
2023-03-04T02:35:29.636Z,5.61
2023-03-04T02:36:28.087Z,5.61
2023-03-04T02:37:28.099Z,5.59
2023-03-04T02:38:28.040Z,5.61
2023-03-04T02:39:28.037Z,5.61
2023-03-04T02:40:28.074Z,5.62
2023-03-04T02:41:28.016Z,5.61
2023-03-04T02:42:28.014Z,5.59
2023-03-04T02:43:28.001Z,5.61
2023-03-04T02:44:28.025Z,5.61
2023-03-04T02:45:29.938Z,5.59
2023-03-04T02:46:28.033Z,5.57
2023-03-04T02:47:27.993Z,5.59
2023-03-04T02:48:27.934Z,5.62
2023-03-04T02:49:28.089Z,5.59
2023-03-04T02:50:27.938Z,5.59
2023-03-04T02:51:27.962Z,5.57
2023-03-04T02:52:27.909Z,5.59
2023-03-04T02:53:27.882Z,5.59
2023-03-04T02:54:27.893Z,5.61
2023-03-04T02:55:27.870Z,5.61
2023-03-04T02:56:27.852Z,5.62
2023-03-04T02:57:27.936Z,5.61
2023-03-04T02:58:28.795Z,5.61
2023-03-04T02:59:27.855Z,5.61
2023-03-04T03:00:27.810Z,5.59
2023-03-04T03:01:27.852Z,5.59
2023-03-04T03:02:27.865Z,5.61
2023-03-04T03:03:27.972Z,5.59
2023-03-04T03:04:27.765Z,5.61
2023-03-04T03:05:27.780Z,5.59
2023-03-04T03:06:27.740Z,5.57
2023-03-04T03:07:27.811Z,5.57
2023-03-04T03:08:27.740Z,5.56
2023-03-04T03:09:27.704Z,5.59
2023-03-04T03:10:27.699Z,5.61
2023-03-04T03:11:27.714Z,5.57
2023-03-04T03:12:28.362Z,5.57
2023-03-04T03:13:27.662Z,5.59
2023-03-04T03:14:27.682Z,5.59
2023-03-04T03:15:28.600Z,5.57
2023-03-04T03:16:27.721Z,5.61
2023-03-04T03:17:27.624Z,5.61
2023-03-04T03:18:27.603Z,5.61
2023-03-04T03:19:27.599Z,5.57
2023-03-04T03:20:28.020Z,5.59
2023-03-04T03:21:27.598Z,5.59
2023-03-04T03:22:27.555Z,5.59
2023-03-04T03:23:27.583Z,5.57
2023-03-04T03:24:27.524Z,5.59
2023-03-04T03:25:28.487Z,5.59
2023-03-04T03:26:28.975Z,5.61
2023-03-04T03:27:27.892Z,5.61
2023-03-04T03:28:27.488Z,5.62
2023-03-04T03:29:27.510Z,5.61
2023-03-04T03:30:27.472Z,5.64
2023-03-04T03:31:29.045Z,5.64
2023-03-04T03:32:27.477Z,5.65
2023-03-04T03:33:27.453Z,5.64
2023-03-04T03:34:27.426Z,5.65
2023-03-04T03:35:27.475Z,5.64
2023-03-04T03:36:29.446Z,5.62
2023-03-04T03:37:27.404Z,5.64
2023-03-04T03:38:27.386Z,5.64
2023-03-04T03:39:27.386Z,5.64
2023-03-04T03:40:27.365Z,5.64
2023-03-04T03:41:27.339Z,5.64
2023-03-04T03:42:27.356Z,5.64
2023-03-04T03:43:27.402Z,5.64
2023-03-04T03:44:27.359Z,5.66
2023-03-04T03:45:27.344Z,5.65
2023-03-04T03:46:27.310Z,5.65
2023-03-04T03:47:27.278Z,5.66
2023-03-04T03:48:27.283Z,5.65
2023-03-04T03:49:27.256Z,5.65
2023-03-04T03:50:27.269Z,5.64
2023-03-04T03:51:27.226Z,5.62
2023-03-04T03:52:27.241Z,5.64
2023-03-04T03:53:27.209Z,5.64
2023-03-04T03:54:27.239Z,5.65
2023-03-04T03:55:27.199Z,5.65
2023-03-04T03:56:27.211Z,5.65
2023-03-04T03:57:27.232Z,5.65
2023-03-04T03:58:27.187Z,5.65
2023-03-04T03:59:27.144Z,5.68
2023-03-04T04:00:27.144Z,5.65
2023-03-04T04:01:27.127Z,5.66
2023-03-04T04:02:27.272Z,5.66
2023-03-04T04:03:27.323Z,5.66
2023-03-04T04:04:27.096Z,5.66
2023-03-04T04:05:27.085Z,5.66
2023-03-04T04:06:27.086Z,5.66
2023-03-04T04:07:27.203Z,5.65
2023-03-04T04:08:27.053Z,5.65
2023-03-04T04:09:27.052Z,5.65
2023-03-04T04:10:27.023Z,5.65
2023-03-04T04:11:27.863Z,5.65
2023-03-04T04:12:28.473Z,5.65
2023-03-04T04:13:27.013Z,5.64
2023-03-04T04:14:26.981Z,5.62
2023-03-04T04:15:26.977Z,5.62
2023-03-04T04:16:27.018Z,5.64
2023-03-04T04:17:26.973Z,5.61
2023-03-04T04:18:27.106Z,5.62
2023-03-04T04:19:27.019Z,5.61
2023-03-04T04:20:27.096Z,5.61
2023-03-04T04:21:27.700Z,5.61
2023-03-04T04:22:26.919Z,5.62
2023-03-04T04:23:27.143Z,5.61
2023-03-04T04:24:26.875Z,5.62
2023-03-04T04:25:27.836Z,5.64
2023-03-04T04:26:27.218Z,5.64
2023-03-04T04:27:26.979Z,5.64
2023-03-04T04:28:26.859Z,5.64
2023-03-04T04:29:26.824Z,5.65
2023-03-04T04:30:27.130Z,5.62
2023-03-04T04:31:26.872Z,5.64
2023-03-04T04:32:26.892Z,5.64
2023-03-04T04:33:26.770Z,5.64
2023-03-04T04:34:26.768Z,5.64
2023-03-04T04:35:26.776Z,5.65
2023-03-04T04:36:26.743Z,5.64
2023-03-04T04:37:26.741Z,5.64
2023-03-04T04:38:27.528Z,5.64
2023-03-04T04:39:26.708Z,5.65
2023-03-04T04:40:26.697Z,5.65
2023-03-04T04:41:26.680Z,5.65
2023-03-04T04:42:26.675Z,5.65
2023-03-04T04:43:26.662Z,5.66
2023-03-04T04:44:26.675Z,5.65
2023-03-04T04:45:27.357Z,5.65
2023-03-04T04:46:26.644Z,5.64
2023-03-04T04:47:26.614Z,5.65
2023-03-04T04:48:26.653Z,5.64
2023-03-04T04:49:26.621Z,5.62
2023-03-04T04:50:26.591Z,5.64
2023-03-04T04:51:26.570Z,5.64
2023-03-04T04:52:26.558Z,5.64
2023-03-04T04:53:27.082Z,5.64
2023-03-04T04:54:27.526Z,5.64
2023-03-04T04:55:26.527Z,5.65
2023-03-04T04:56:27.500Z,5.65
2023-03-04T04:57:26.498Z,5.64
2023-03-04T04:58:27.965Z,5.62
2023-03-04T04:59:26.480Z,5.64
2023-03-04T05:00:26.494Z,5.62
2023-03-04T05:01:26.512Z,5.62
2023-03-04T05:02:26.453Z,5.61
2023-03-04T05:03:28.010Z,5.61
2023-03-04T05:04:26.470Z,5.57
2023-03-04T05:05:26.418Z,5.59
2023-03-04T05:06:26.412Z,5.57
2023-03-04T05:07:26.391Z,5.57
2023-03-04T05:08:26.402Z,5.61
2023-03-04T05:09:26.393Z,5.59
2023-03-04T05:10:26.414Z,5.59
2023-03-04T05:11:26.365Z,5.57
2023-03-04T05:12:26.392Z,5.57
2023-03-04T05:13:26.347Z,5.56
2023-03-04T05:14:26.324Z,5.54
2023-03-04T05:15:26.319Z,5.54
2023-03-04T05:16:26.313Z,5.53
2023-03-04T05:17:26.292Z,5.53
2023-03-04T05:18:26.328Z,5.56
2023-03-04T05:19:26.297Z,5.56
2023-03-04T05:20:26.261Z,5.56
2023-03-04T05:21:26.237Z,5.54
2023-03-04T05:22:26.274Z,5.56
2023-03-04T05:23:26.224Z,5.56
2023-03-04T05:24:26.207Z,5.56
2023-03-04T05:25:26.200Z,5.57
2023-03-04T05:26:27.149Z,5.57
2023-03-04T05:27:26.169Z,5.57
2023-03-04T05:28:26.227Z,5.59
2023-03-04T05:29:26.161Z,5.57
2023-03-04T05:30:26.150Z,5.57
2023-03-04T05:31:26.156Z,5.57
2023-03-04T05:32:26.172Z,5.59
2023-03-04T05:33:26.118Z,5.59
2023-03-04T05:34:26.134Z,5.59
2023-03-04T05:35:28.786Z,5.61
2023-03-04T05:36:27.046Z,5.62
2023-03-04T05:37:26.109Z,5.61
2023-03-04T05:38:26.071Z,5.62
2023-03-04T05:39:26.058Z,5.62
2023-03-04T05:40:27.023Z,5.64
2023-03-04T05:41:26.017Z,5.64
2023-03-04T05:42:26.067Z,5.62
2023-03-04T05:43:26.032Z,5.64
2023-03-04T05:44:26.004Z,5.62
2023-03-04T05:45:25.976Z,5.62
2023-03-04T05:46:26.942Z,5.62
2023-03-04T05:47:25.956Z,5.62
2023-03-04T05:48:25.980Z,5.64
2023-03-04T05:49:25.933Z,5.62
2023-03-04T05:50:25.930Z,5.62
2023-03-04T05:51:25.914Z,5.61
2023-03-04T05:52:25.911Z,5.59
2023-03-04T05:53:25.940Z,5.59
2023-03-04T05:54:27.388Z,5.59
2023-03-04T05:55:25.868Z,5.57
2023-03-04T05:56:26.848Z,5.61
2023-03-04T05:57:26.418Z,5.59
2023-03-04T05:58:25.848Z,5.59
2023-03-04T05:59:26.809Z,5.57
2023-03-04T06:00:25.821Z,5.59
2023-03-04T06:01:25.809Z,5.59
2023-03-04T06:02:25.838Z,5.59
2023-03-04T06:03:25.797Z,5.61
2023-03-04T06:04:25.761Z,5.61
2023-03-04T06:05:25.780Z,5.59
2023-03-04T06:06:25.765Z,5.59
2023-03-04T06:07:25.731Z,5.61
2023-03-04T06:08:25.755Z,5.61
2023-03-04T06:09:25.700Z,5.61
2023-03-04T06:10:25.715Z,5.61
2023-03-04T06:11:25.683Z,5.61
2023-03-04T06:12:25.680Z,5.59
2023-03-04T06:13:25.671Z,5.61
2023-03-04T06:14:26.032Z,5.61
2023-03-04T06:15:25.647Z,5.61
2023-03-04T06:16:25.687Z,5.59
2023-03-04T06:17:25.627Z,5.59
2023-03-04T06:18:25.662Z,5.61
2023-03-04T06:19:25.620Z,5.59
2023-03-04T06:20:25.604Z,5.59
2023-03-04T06:21:25.592Z,5.59
2023-03-04T06:22:25.585Z,5.59
2023-03-04T06:23:25.610Z,5.59
2023-03-04T06:24:25.602Z,5.59
2023-03-04T06:25:25.561Z,5.61
2023-03-04T06:26:25.534Z,5.62
2023-03-04T06:27:25.514Z,5.62
2023-03-04T06:28:25.545Z,5.64
2023-03-04T06:29:25.495Z,5.64
2023-03-04T06:30:25.505Z,5.65
2023-03-04T06:31:25.538Z,5.66
2023-03-04T06:32:25.539Z,5.66
2023-03-04T06:33:26.406Z,5.66
2023-03-04T06:34:25.474Z,5.66
2023-03-04T06:35:26.956Z,5.65
2023-03-04T06:36:25.413Z,5.66
2023-03-04T06:37:25.441Z,5.66
2023-03-04T06:38:25.418Z,5.68
2023-03-04T06:39:25.431Z,5.66
2023-03-04T06:40:25.399Z,5.66
2023-03-04T06:41:25.389Z,5.68
2023-03-04T06:42:25.394Z,5.65
2023-03-04T06:43:25.347Z,5.66
2023-03-04T06:44:25.321Z,5.65
2023-03-04T06:45:26.301Z,5.65
2023-03-04T06:46:28.816Z,5.66
2023-03-04T06:47:25.300Z,5.65
2023-03-04T06:48:25.327Z,5.65
2023-03-04T06:49:26.261Z,5.65
2023-03-04T06:50:26.126Z,5.65
2023-03-04T06:51:25.250Z,5.66
2023-03-04T06:52:25.245Z,5.65
2023-03-04T06:53:25.249Z,5.65
2023-03-04T06:54:25.222Z,5.65
2023-03-04T06:55:26.158Z,5.65
2023-03-04T06:56:25.220Z,5.66
2023-03-04T06:57:25.207Z,5.65
2023-03-04T06:58:25.204Z,5.65
2023-03-04T06:59:25.163Z,5.65
2023-03-04T07:00:25.165Z,5.64
2023-03-04T07:01:25.136Z,5.65
2023-03-04T07:02:25.158Z,5.66
2023-03-04T07:03:25.120Z,5.66
2023-03-04T07:04:25.171Z,5.66
2023-03-04T07:05:25.090Z,5.66
2023-03-04T07:06:25.089Z,5.66
2023-03-04T07:07:26.521Z,5.68
2023-03-04T07:08:25.089Z,5.68
2023-03-04T07:09:25.044Z,5.69
2023-03-04T07:10:25.048Z,5.69
2023-03-04T07:11:25.038Z,5.68
2023-03-04T07:12:25.043Z,5.68
2023-03-04T07:13:25.016Z,5.66
2023-03-04T07:14:25.033Z,5.65
2023-03-04T07:15:24.981Z,5.66
2023-03-04T07:16:25.118Z,5.64
2023-03-04T07:17:25.164Z,5.64
2023-03-04T07:18:24.973Z,5.64
2023-03-04T07:19:24.936Z,5.65
2023-03-04T07:20:24.922Z,5.62
2023-03-04T07:21:25.001Z,5.64
2023-03-04T07:22:24.935Z,5.64
2023-03-04T07:23:24.895Z,5.62
2023-03-04T07:24:24.891Z,5.64
2023-03-04T07:25:24.873Z,5.65
2023-03-04T07:26:25.386Z,5.65
2023-03-04T07:27:24.873Z,5.65
2023-03-04T07:28:24.833Z,5.62
2023-03-04T07:29:24.817Z,5.65
2023-03-04T07:30:24.819Z,5.64
2023-03-04T07:31:27.346Z,5.64
2023-03-04T07:32:24.835Z,5.62
2023-03-04T07:33:24.782Z,5.62
2023-03-04T07:34:24.770Z,5.59
2023-03-04T07:35:24.822Z,5.61
2023-03-04T07:36:24.754Z,5.57
2023-03-04T07:37:24.764Z,5.57
2023-03-04T07:38:24.741Z,5.56
2023-03-04T07:39:24.770Z,5.57
2023-03-04T07:40:24.723Z,5.57
2023-03-04T07:41:24.722Z,5.56
2023-03-04T07:42:24.675Z,5.57
2023-03-04T07:43:24.699Z,5.57
2023-03-04T07:44:24.670Z,5.56
2023-03-04T07:45:24.648Z,5.59
2023-03-04T07:46:24.639Z,5.59
2023-03-04T07:47:24.626Z,5.57
2023-03-04T07:48:24.638Z,5.59
2023-03-04T07:49:24.633Z,5.57
2023-03-04T07:50:24.587Z,5.59
2023-03-04T07:51:24.569Z,5.57
2023-03-04T07:52:24.577Z,5.59
2023-03-04T07:53:24.551Z,5.61
2023-03-04T07:54:24.566Z,5.62
2023-03-04T07:55:24.531Z,5.64
2023-03-04T07:56:24.512Z,5.65
2023-03-04T07:57:24.514Z,5.66
2023-03-04T07:58:24.506Z,5.68
2023-03-04T07:59:24.538Z,5.69
2023-03-04T08:00:24.471Z,5.69
2023-03-04T08:01:24.497Z,5.71
2023-03-04T08:02:24.502Z,5.72
2023-03-04T08:03:24.456Z,5.73
2023-03-04T08:04:24.477Z,5.73
2023-03-04T08:05:24.463Z,5.76
2023-03-04T08:06:24.415Z,5.80
2023-03-04T08:07:24.453Z,5.83
2023-03-04T08:08:24.389Z,5.84
2023-03-04T08:09:24.373Z,5.84
2023-03-04T08:10:24.365Z,5.87
2023-03-04T08:11:24.367Z,5.87
2023-03-04T08:12:25.358Z,5.90
2023-03-04T08:13:25.899Z,5.93
2023-03-04T08:14:25.050Z,5.93
2023-03-04T08:15:24.315Z,5.97
2023-03-04T08:16:24.305Z,5.97
2023-03-04T08:17:25.327Z,5.94
2023-03-04T08:18:24.284Z,5.94
2023-03-04T08:19:26.064Z,5.94
2023-03-04T08:20:24.305Z,5.97
2023-03-04T08:21:24.257Z,5.94
2023-03-04T08:22:25.452Z,5.94
2023-03-04T08:23:24.289Z,5.94
2023-03-04T08:24:24.214Z,5.97
2023-03-04T08:25:24.244Z,5.93
2023-03-04T08:26:24.219Z,5.94
2023-03-04T08:27:24.226Z,5.98
2023-03-04T08:28:24.185Z,6.02
2023-03-04T08:29:24.217Z,6.05
2023-03-04T08:30:24.152Z,6.08
2023-03-04T08:31:24.256Z,6.17
2023-03-04T08:32:24.236Z,6.26
2023-03-04T08:33:24.113Z,6.28
2023-03-04T08:34:24.114Z,6.33
2023-03-04T08:35:24.173Z,6.35
2023-03-04T08:36:24.066Z,6.36
2023-03-04T08:37:24.078Z,6.38
2023-03-04T08:38:24.046Z,6.39
2023-03-04T08:39:24.050Z,6.39
2023-03-04T08:40:24.054Z,6.38
2023-03-04T08:41:24.014Z,6.38
2023-03-04T08:42:23.988Z,6.36
2023-03-04T08:43:24.048Z,6.36
2023-03-04T08:44:26.640Z,6.36
2023-03-04T08:45:23.980Z,6.35
2023-03-04T08:46:23.999Z,6.31
2023-03-04T08:47:23.948Z,6.28
2023-03-04T08:48:23.951Z,6.27
2023-03-04T08:49:23.958Z,6.28
2023-03-04T08:50:23.911Z,6.30
2023-03-04T08:51:23.921Z,6.31
2023-03-04T08:52:23.922Z,6.33
2023-03-04T08:53:23.916Z,6.35
2023-03-04T08:54:23.911Z,6.36
2023-03-04T08:55:23.869Z,6.35
2023-03-04T08:56:23.840Z,6.33
2023-03-04T08:57:24.793Z,6.30
2023-03-04T08:58:23.828Z,6.27
2023-03-04T08:59:23.813Z,6.26
2023-03-04T09:00:23.891Z,6.24
2023-03-04T09:01:23.828Z,6.22
2023-03-04T09:02:23.784Z,6.20
2023-03-04T09:03:25.277Z,6.22
2023-03-04T09:04:23.797Z,6.20
2023-03-04T09:05:25.224Z,6.19
2023-03-04T09:06:24.463Z,6.22
2023-03-04T09:07:23.827Z,6.22
2023-03-04T09:08:24.962Z,6.22
2023-03-04T09:09:23.703Z,6.24
2023-03-04T09:10:23.714Z,6.24
2023-03-04T09:11:23.685Z,6.26
2023-03-04T09:12:23.677Z,6.27
2023-03-04T09:13:26.120Z,6.33
2023-03-04T09:14:24.206Z,6.36
2023-03-04T09:15:25.095Z,6.36
2023-03-04T09:16:25.587Z,6.41
2023-03-04T09:17:24.572Z,6.42
2023-03-04T09:18:23.669Z,6.39
2023-03-04T09:19:24.541Z,6.35
2023-03-04T09:20:23.601Z,6.33
2023-03-04T09:21:23.642Z,6.36
2023-03-04T09:22:23.553Z,6.38
2023-03-04T09:23:23.604Z,6.41
2023-03-04T09:24:23.547Z,6.38
2023-03-04T09:25:23.533Z,6.39
2023-03-04T09:26:24.635Z,6.42
2023-03-04T09:27:23.524Z,6.42
2023-03-04T09:28:23.506Z,6.45
2023-03-04T09:29:23.721Z,6.48
2023-03-04T09:30:24.449Z,6.52
2023-03-04T09:31:23.599Z,6.57
2023-03-04T09:32:23.461Z,6.63
2023-03-04T09:33:24.599Z,6.66
2023-03-04T09:34:23.448Z,6.69
2023-03-04T09:35:23.442Z,6.67
2023-03-04T09:36:25.370Z,6.70
2023-03-04T09:37:24.267Z,6.72
2023-03-04T09:38:23.374Z,6.74
2023-03-04T09:39:23.499Z,6.78
2023-03-04T09:40:23.384Z,6.78
2023-03-04T09:41:23.353Z,6.79
2023-03-04T09:42:24.831Z,6.81
2023-03-04T09:43:23.347Z,6.81
2023-03-04T09:44:23.338Z,6.81
2023-03-04T09:45:23.311Z,6.82
2023-03-04T09:46:23.330Z,6.82
2023-03-04T09:47:23.336Z,6.84
2023-03-04T09:48:23.302Z,6.82
2023-03-04T09:49:23.253Z,6.82
2023-03-04T09:50:23.480Z,6.85
2023-03-04T09:51:23.302Z,6.87
2023-03-04T09:52:23.223Z,6.85
2023-03-04T09:53:23.246Z,6.85
2023-03-04T09:54:24.648Z,6.88
2023-03-04T09:55:23.180Z,6.92
2023-03-04T09:56:23.187Z,6.95
2023-03-04T09:57:23.189Z,6.99
2023-03-04T09:58:23.176Z,7.00
2023-03-04T09:59:25.147Z,7.05
2023-03-04T10:00:23.200Z,7.10
2023-03-04T10:01:23.142Z,7.07
2023-03-04T10:02:23.204Z,7.10
2023-03-04T10:03:23.252Z,7.13
2023-03-04T10:04:23.111Z,7.14
2023-03-04T10:05:23.106Z,7.15
2023-03-04T10:06:23.075Z,7.15
2023-03-04T10:07:23.058Z,7.17
2023-03-04T10:08:23.037Z,7.21
2023-03-04T10:09:24.488Z,7.23
2023-03-04T10:10:23.974Z,7.24
2023-03-04T10:11:23.006Z,7.28
2023-03-04T10:12:23.007Z,7.29
2023-03-04T10:13:24.435Z,7.31
2023-03-04T10:14:23.015Z,7.33
2023-03-04T10:15:22.991Z,7.36
2023-03-04T10:16:23.012Z,7.40
2023-03-04T10:17:22.938Z,7.42
2023-03-04T10:18:23.861Z,7.45
2023-03-04T10:19:22.931Z,7.48
2023-03-04T10:20:24.348Z,7.54
2023-03-04T10:21:22.943Z,7.56
2023-03-04T10:22:22.893Z,7.58
2023-03-04T10:23:22.892Z,7.58
2023-03-04T10:24:22.860Z,7.60
2023-03-04T10:25:22.937Z,7.61
2023-03-04T10:26:22.873Z,7.66
2023-03-04T10:27:22.852Z,7.66
2023-03-04T10:28:22.820Z,7.72
2023-03-04T10:29:23.000Z,7.76
2023-03-04T10:30:24.247Z,7.77
2023-03-04T10:31:22.873Z,7.82
2023-03-04T10:32:24.303Z,7.83
2023-03-04T10:33:22.757Z,7.88
2023-03-04T10:34:22.753Z,7.93
2023-03-04T10:35:22.823Z,7.93
2023-03-04T10:36:22.720Z,7.95
2023-03-04T10:37:24.177Z,7.95
2023-03-04T10:38:22.710Z,7.97
2023-03-04T10:39:22.948Z,7.93
2023-03-04T10:40:22.685Z,7.91
2023-03-04T10:41:24.647Z,7.91
2023-03-04T10:42:22.802Z,7.88
2023-03-04T10:43:24.109Z,7.87
2023-03-04T10:44:22.680Z,7.87
2023-03-04T10:45:24.155Z,7.82
2023-03-04T10:46:24.975Z,7.77
2023-03-04T10:47:22.623Z,7.69
2023-03-04T10:48:22.578Z,7.63
2023-03-04T10:49:22.593Z,7.60
2023-03-04T10:50:23.442Z,7.63
2023-03-04T10:51:22.768Z,7.70
2023-03-04T10:52:22.544Z,7.76
2023-03-04T10:53:24.028Z,7.80
2023-03-04T10:54:22.516Z,7.87
2023-03-04T10:55:22.543Z,7.93
2023-03-04T10:56:22.492Z,8.01
2023-03-04T10:57:22.805Z,8.09
2023-03-04T10:58:22.471Z,8.12
2023-03-04T10:59:22.459Z,8.13
2023-03-04T11:00:22.438Z,8.13
2023-03-04T11:01:22.556Z,8.15
2023-03-04T11:02:22.427Z,8.12
2023-03-04T11:03:22.476Z,8.12
2023-03-04T11:04:23.187Z,8.12
2023-03-04T11:05:22.411Z,8.09
2023-03-04T11:06:22.403Z,8.05
2023-03-04T11:07:22.363Z,8.05
2023-03-04T11:08:22.384Z,8.01
2023-03-04T11:09:22.578Z,7.97
2023-03-04T11:10:22.349Z,7.93
2023-03-04T11:11:22.313Z,7.93
2023-03-04T11:12:22.308Z,7.93
2023-03-04T11:13:22.359Z,7.97
2023-03-04T11:14:23.114Z,7.95
2023-03-04T11:15:22.252Z,7.97
2023-03-04T11:16:22.299Z,8.01
2023-03-04T11:17:22.274Z,8.05
2023-03-04T11:18:23.190Z,8.06
2023-03-04T11:19:22.231Z,8.10
2023-03-04T11:20:23.040Z,8.12
2023-03-04T11:21:22.207Z,8.13
2023-03-04T11:22:23.312Z,8.12
2023-03-04T11:23:22.223Z,8.09
2023-03-04T11:24:28.129Z,8.09
2023-03-04T11:25:23.158Z,8.13
2023-03-04T11:26:22.169Z,8.20
2023-03-04T11:27:22.119Z,8.24
2023-03-04T11:28:22.411Z,8.23
2023-03-04T11:29:22.160Z,8.18
2023-03-04T11:30:22.085Z,8.19
2023-03-04T11:31:22.115Z,8.19
2023-03-04T11:32:22.107Z,8.19
2023-03-04T11:33:23.027Z,8.20
2023-03-04T11:34:22.043Z,8.20
2023-03-04T11:35:22.230Z,8.18
2023-03-04T11:36:22.039Z,8.16
2023-03-04T11:37:22.050Z,8.19
2023-03-04T11:38:22.024Z,8.20
2023-03-04T11:39:23.470Z,8.24
2023-03-04T11:40:23.686Z,8.26
